Hill Air Force Base
KHIF : now visible

Airfield :











YOU CAN JOIN US ON...

 
LOGIN :

Register | Disclaimer

   EN    FR    IT 

 









Legend :    VFR   Marginal VFR   IFR   Intensive IFR   Very Intensive IFR
Visi :
Ceiling :
>= 8 km
>= 3000ft
5 to 8 km
1000 to 3000 ft
1500m to 5 km
500 to 1000 ft
800 to 1500m
200 to 500 ft
< 800m
< 200 ft
Symbols :   Thunderstorms  Fog  Heavy snow  Heavy precipitations  Wind > 20 kt






- Airport Elevation : 4789 ft


KHIF - Hill Air Force Base

CURRENT METAR :
  • 071458Z 13007KT 10SM CLR 23/M02 A3002 RMK AO2A SLP104 T02341016 52018

EXPIRED METARs :
  • 071358Z AUTO 12005KT 10SM CLR 21/M02 A3001 RMK AO2 SLP096 T02081023
  • 071258Z AUTO 14009KT 10SM CLR 19/M05 A2999 RMK AO2 SLP089 T01941048

TAF TAF KHIF
Valid from the 07 at 13:00 until the 08 at 19:00 UTC


071300Z 0713/0819 13012KT 9999 SKC QNH2995INS
BECMG 0717/0718 26010G15KT 9999 SKC QNH3008INS
BECMG 0803/0804 10008KT 9999 SKC QNH3006INS TX31/0722Z TN17/0812Z
KZLC FIR / North America



MET'MAP, your aeronautical weather chart ! - Copyright ORBIFLY December 2007 - Disclaimer

ORBIFLY MET'MAP TEAM :

Programming & Development : Alexandra Zaïnal
Concept & original design : Baudouin d'Aumeries
Assistance for programming : Marc-Olivier Méhu
Technical & hardware support : Manuel Goepfert

Contact : metmap@orbifly.com




SOURCES & CREDITS :

   NOAA       Earth
Advisory